sensor_id;sensor_type;location;lat;lon;timestamp;P1;durP1;ratioP1;P2;durP2;ratioP2
39454;SDS011;25155;41.890;23.446;2022-11-11T00:00:59;11.63;;;8.80;;
39454;SDS011;25155;41.890;23.446;2022-11-11T00:03:26;12.38;;;9.07;;
39454;SDS011;25155;41.890;23.446;2022-11-11T00:05:53;11.05;;;7.93;;
39454;SDS011;25155;41.890;23.446;2022-11-11T00:08:21;11.80;;;8.65;;
39454;SDS011;25155;41.890;23.446;2022-11-11T00:10:48;11.02;;;8.00;;
39454;SDS011;25155;41.890;23.446;2022-11-11T00:13:17;11.25;;;9.20;;
39454;SDS011;25155;41.890;23.446;2022-11-11T00:15:44;16.17;;;11.93;;
39454;SDS011;25155;41.890;23.446;2022-11-11T00:18:11;19.20;;;14.68;;
39454;SDS011;25155;41.890;23.446;2022-11-11T00:20:59;22.73;;;18.15;;
39454;SDS011;25155;41.890;23.446;2022-11-11T00:23:43;28.63;;;19.77;;
39454;SDS011;25155;41.890;23.446;2022-11-11T00:26:27;25.13;;;19.27;;
39454;SDS011;25155;41.890;23.446;2022-11-11T00:28:56;22.92;;;17.77;;
39454;SDS011;25155;41.890;23.446;2022-11-11T00:31:24;20.30;;;14.75;;
39454;SDS011;25155;41.890;23.446;2022-11-11T00:33:51;16.40;;;12.23;;
39454;SDS011;25155;41.890;23.446;2022-11-11T00:36:19;14.43;;;10.95;;
39454;SDS011;25155;41.890;23.446;2022-11-11T00:38:45;14.23;;;10.98;;
39454;SDS011;25155;41.890;23.446;2022-11-11T00:41:14;14.38;;;10.68;;
39454;SDS011;25155;41.890;23.446;2022-11-11T00:43:43;14.10;;;10.75;;
39454;SDS011;25155;41.890;23.446;2022-11-11T00:46:13;13.10;;;10.27;;
39454;SDS011;25155;41.890;23.446;2022-11-11T00:48:59;12.88;;;9.50;;
39454;SDS011;25155;41.890;23.446;2022-11-11T00:51:43;21.23;;;14.10;;
39454;SDS011;25155;41.890;23.446;2022-11-11T00:54:11;19.83;;;15.50;;
39454;SDS011;25155;41.890;23.446;2022-11-11T00:56:39;17.85;;;14.02;;
39454;SDS011;25155;41.890;23.446;2022-11-11T00:59:06;22.77;;;16.17;;
39454;SDS011;25155;41.890;23.446;2022-11-11T01:01:36;19.10;;;13.70;;
39454;SDS011;25155;41.890;23.446;2022-11-11T01:04:03;20.63;;;15.35;;
39454;SDS011;25155;41.890;23.446;2022-11-11T01:06:31;17.75;;;14.18;;
39454;SDS011;25155;41.890;23.446;2022-11-11T01:09:03;16.77;;;12.43;;
39454;SDS011;25155;41.890;23.446;2022-11-11T01:11:31;20.48;;;15.13;;
39454;SDS011;25155;41.890;23.446;2022-11-11T01:13:58;19.95;;;15.52;;
39454;SDS011;25155;41.890;23.446;2022-11-11T01:16:25;19.90;;;14.65;;
39454;SDS011;25155;41.890;23.446;2022-11-11T01:18:54;17.02;;;12.73;;
39454;SDS011;25155;41.890;23.446;2022-11-11T01:21:24;14.65;;;11.30;;
39454;SDS011;25155;41.890;23.446;2022-11-11T01:23:52;14.93;;;11.18;;
39454;SDS011;25155;41.890;23.446;2022-11-11T01:26:20;12.23;;;9.55;;
39454;SDS011;25155;41.890;23.446;2022-11-11T01:28:49;16.00;;;11.75;;
39454;SDS011;25155;41.890;23.446;2022-11-11T01:31:17;15.60;;;11.98;;
39454;SDS011;25155;41.890;23.446;2022-11-11T01:33:45;17.42;;;11.48;;
39454;SDS011;25155;41.890;23.446;2022-11-11T01:36:16;15.27;;;11.75;;
39454;SDS011;25155;41.890;23.446;2022-11-11T01:41:15;16.63;;;11.93;;
39454;SDS011;25155;41.890;23.446;2022-11-11T01:44:02;13.82;;;9.98;;
39454;SDS011;25155;41.890;23.446;2022-11-11T01:46:44;18.83;;;13.07;;
39454;SDS011;25155;41.890;23.446;2022-11-11T01:49:18;20.50;;;14.07;;
39454;SDS011;25155;41.890;23.446;2022-11-11T01:51:53;18.83;;;14.23;;
39454;SDS011;25155;41.890;23.446;2022-11-11T01:54:29;19.75;;;14.23;;
39454;SDS011;25155;41.890;23.446;2022-11-11T01:57:00;18.92;;;13.43;;
39454;SDS011;25155;41.890;23.446;2022-11-11T01:59:31;25.33;;;17.45;;
39454;SDS011;25155;41.890;23.446;2022-11-11T02:02:02;31.75;;;22.35;;
39454;SDS011;25155;41.890;23.446;2022-11-11T02:04:35;29.20;;;20.45;;
39454;SDS011;25155;41.890;23.446;2022-11-11T02:07:21;23.85;;;16.52;;
39454;SDS011;25155;41.890;23.446;2022-11-11T02:09:51;38.47;;;26.10;;
39454;SDS011;25155;41.890;23.446;2022-11-11T02:12:20;34.47;;;24.20;;
39454;SDS011;25155;41.890;23.446;2022-11-11T02:15:05;26.45;;;18.67;;
39454;SDS011;25155;41.890;23.446;2022-11-11T02:17:33;33.65;;;21.85;;
39454;SDS011;25155;41.890;23.446;2022-11-11T02:20:01;34.72;;;23.05;;
39454;SDS011;25155;41.890;23.446;2022-11-11T02:22:33;27.00;;;17.92;;
39454;SDS011;25155;41.890;23.446;2022-11-11T02:25:10;20.77;;;14.57;;
39454;SDS011;25155;41.890;23.446;2022-11-11T02:27:40;22.52;;;16.05;;
39454;SDS011;25155;41.890;23.446;2022-11-11T02:30:10;20.95;;;14.38;;
39454;SDS011;25155;41.890;23.446;2022-11-11T02:32:41;24.10;;;14.98;;
39454;SDS011;25155;41.890;23.446;2022-11-11T02:35:13;16.83;;;12.55;;
39454;SDS011;25155;41.890;23.446;2022-11-11T02:37:43;16.13;;;10.93;;
39454;SDS011;25155;41.890;23.446;2022-11-11T02:40:15;18.20;;;12.40;;
39454;SDS011;25155;41.890;23.446;2022-11-11T02:42:43;15.80;;;11.80;;
39454;SDS011;25155;41.890;23.446;2022-11-11T02:45:10;17.73;;;12.05;;
39454;SDS011;25155;41.890;23.446;2022-11-11T02:47:37;19.63;;;14.13;;
39454;SDS011;25155;41.890;23.446;2022-11-11T02:50:05;22.27;;;14.98;;
39454;SDS011;25155;41.890;23.446;2022-11-11T02:52:33;18.60;;;12.60;;
39454;SDS011;25155;41.890;23.446;2022-11-11T02:55:00;16.13;;;12.10;;
39454;SDS011;25155;41.890;23.446;2022-11-11T02:57:29;23.92;;;16.13;;
39454;SDS011;25155;41.890;23.446;2022-11-11T02:59:57;25.15;;;18.05;;
39454;SDS011;25155;41.890;23.446;2022-11-11T03:02:26;31.00;;;20.85;;
39454;SDS011;25155;41.890;23.446;2022-11-11T03:04:54;24.15;;;17.30;;
39454;SDS011;25155;41.890;23.446;2022-11-11T03:07:23;18.17;;;13.48;;
39454;SDS011;25155;41.890;23.446;2022-11-11T03:09:51;15.43;;;11.35;;
39454;SDS011;25155;41.890;23.446;2022-11-11T03:12:18;12.95;;;9.38;;
39454;SDS011;25155;41.890;23.446;2022-11-11T03:14:47;14.13;;;10.48;;
39454;SDS011;25155;41.890;23.446;2022-11-11T03:17:14;13.60;;;10.20;;
39454;SDS011;25155;41.890;23.446;2022-11-11T03:19:58;19.50;;;12.65;;
39454;SDS011;25155;41.890;23.446;2022-11-11T03:22:39;16.27;;;11.17;;
39454;SDS011;25155;41.890;23.446;2022-11-11T03:25:07;14.00;;;9.82;;
39454;SDS011;25155;41.890;23.446;2022-11-11T03:27:52;12.20;;;9.20;;
39454;SDS011;25155;41.890;23.446;2022-11-11T03:30:21;10.65;;;7.65;;
39454;SDS011;25155;41.890;23.446;2022-11-11T03:32:48;11.07;;;7.63;;
39454;SDS011;25155;41.890;23.446;2022-11-11T03:35:15;10.80;;;8.07;;
39454;SDS011;25155;41.890;23.446;2022-11-11T03:37:42;14.93;;;10.70;;
39454;SDS011;25155;41.890;23.446;2022-11-11T03:40:27;18.90;;;13.57;;
39454;SDS011;25155;41.890;23.446;2022-11-11T03:42:54;15.57;;;11.85;;
39454;SDS011;25155;41.890;23.446;2022-11-11T03:45:23;15.95;;;11.48;;
39454;SDS011;25155;41.890;23.446;2022-11-11T03:47:50;17.10;;;12.05;;
39454;SDS011;25155;41.890;23.446;2022-11-11T03:50:19;15.05;;;10.13;;
39454;SDS011;25155;41.890;23.446;2022-11-11T03:52:46;17.55;;;12.27;;
39454;SDS011;25155;41.890;23.446;2022-11-11T03:55:14;17.48;;;11.43;;
39454;SDS011;25155;41.890;23.446;2022-11-11T03:57:44;21.17;;;14.90;;
39454;SDS011;25155;41.890;23.446;2022-11-11T04:00:13;28.85;;;20.33;;
39454;SDS011;25155;41.890;23.446;2022-11-11T04:02:44;26.65;;;18.95;;
39454;SDS011;25155;41.890;23.446;2022-11-11T04:05:28;21.17;;;15.10;;
39454;SDS011;25155;41.890;23.446;2022-11-11T04:08:13;18.30;;;12.05;;
39454;SDS011;25155;41.890;23.446;2022-11-11T04:11:00;13.27;;;9.65;;
39454;SDS011;25155;41.890;23.446;2022-11-11T04:13:32;22.50;;;16.23;;
39454;SDS011;25155;41.890;23.446;2022-11-11T04:16:17;26.30;;;19.02;;
39454;SDS011;25155;41.890;23.446;2022-11-11T04:18:46;31.63;;;22.75;;
39454;SDS011;25155;41.890;23.446;2022-11-11T04:21:30;33.03;;;22.20;;
39454;SDS011;25155;41.890;23.446;2022-11-11T04:24:10;37.22;;;26.58;;
39454;SDS011;25155;41.890;23.446;2022-11-11T04:26:56;34.67;;;24.38;;
39454;SDS011;25155;41.890;23.446;2022-11-11T04:29:25;31.80;;;21.70;;
39454;SDS011;25155;41.890;23.446;2022-11-11T04:31:57;26.00;;;18.98;;
39454;SDS011;25155;41.890;23.446;2022-11-11T04:34:45;31.90;;;22.60;;
39454;SDS011;25155;41.890;23.446;2022-11-11T04:37:14;32.83;;;22.75;;
39454;SDS011;25155;41.890;23.446;2022-11-11T04:39:41;38.70;;;27.45;;
39454;SDS011;25155;41.890;23.446;2022-11-11T04:42:26;39.88;;;27.17;;
39454;SDS011;25155;41.890;23.446;2022-11-11T04:44:56;35.42;;;25.95;;
39454;SDS011;25155;41.890;23.446;2022-11-11T04:50:39;23.95;;;17.60;;
39454;SDS011;25155;41.890;23.446;2022-11-11T04:53:11;21.83;;;16.02;;
39454;SDS011;25155;41.890;23.446;2022-11-11T04:55:57;24.80;;;16.92;;
39454;SDS011;25155;41.890;23.446;2022-11-11T04:58:51;24.87;;;16.00;;
39454;SDS011;25155;41.890;23.446;2022-11-11T05:01:47;30.48;;;20.55;;
39454;SDS011;25155;41.890;23.446;2022-11-11T05:04:36;26.05;;;17.98;;
39454;SDS011;25155;41.890;23.446;2022-11-11T05:07:18;34.92;;;24.88;;
39454;SDS011;25155;41.890;23.446;2022-11-11T05:10:18;31.42;;;22.63;;
39454;SDS011;25155;41.890;23.446;2022-11-11T05:12:55;27.10;;;18.85;;
39454;SDS011;25155;41.890;23.446;2022-11-11T05:15:43;35.30;;;21.58;;
39454;SDS011;25155;41.890;23.446;2022-11-11T05:18:30;28.88;;;21.42;;
39454;SDS011;25155;41.890;23.446;2022-11-11T05:21:15;24.60;;;17.60;;
39454;SDS011;25155;41.890;23.446;2022-11-11T05:23:50;23.40;;;16.25;;
39454;SDS011;25155;41.890;23.446;2022-11-11T05:26:50;21.17;;;15.13;;
39454;SDS011;25155;41.890;23.446;2022-11-11T05:29:31;34.70;;;19.70;;
39454;SDS011;25155;41.890;23.446;2022-11-11T05:32:06;40.92;;;27.63;;
39454;SDS011;25155;41.890;23.446;2022-11-11T05:34:46;65.15;;;37.28;;
39454;SDS011;25155;41.890;23.446;2022-11-11T05:37:28;73.53;;;40.65;;
39454;SDS011;25155;41.890;23.446;2022-11-11T05:40:09;63.70;;;38.58;;
39454;SDS011;25155;41.890;23.446;2022-11-11T05:42:41;62.97;;;37.78;;
39454;SDS011;25155;41.890;23.446;2022-11-11T05:45:22;45.97;;;29.92;;
39454;SDS011;25155;41.890;23.446;2022-11-11T05:48:01;43.92;;;27.73;;
39454;SDS011;25155;41.890;23.446;2022-11-11T05:50:29;40.72;;;28.10;;
39454;SDS011;25155;41.890;23.446;2022-11-11T05:53:03;53.53;;;33.58;;
39454;SDS011;25155;41.890;23.446;2022-11-11T05:55:37;49.17;;;32.00;;
39454;SDS011;25155;41.890;23.446;2022-11-11T05:58:09;42.47;;;29.00;;
39454;SDS011;25155;41.890;23.446;2022-11-11T06:00:36;34.88;;;24.83;;
39454;SDS011;25155;41.890;23.446;2022-11-11T06:03:05;32.38;;;22.88;;
39454;SDS011;25155;41.890;23.446;2022-11-11T06:05:34;71.30;;;45.42;;
39454;SDS011;25155;41.890;23.446;2022-11-11T06:08:02;52.17;;;33.65;;
39454;SDS011;25155;41.890;23.446;2022-11-11T06:10:30;40.10;;;25.40;;
39454;SDS011;25155;41.890;23.446;2022-11-11T06:13:00;28.38;;;20.27;;
39454;SDS011;25155;41.890;23.446;2022-11-11T06:15:29;41.15;;;27.80;;
39454;SDS011;25155;41.890;23.446;2022-11-11T06:17:58;40.97;;;29.50;;
39454;SDS011;25155;41.890;23.446;2022-11-11T06:20:29;34.22;;;24.35;;
39454;SDS011;25155;41.890;23.446;2022-11-11T06:23:00;54.10;;;35.95;;
39454;SDS011;25155;41.890;23.446;2022-11-11T06:25:28;72.47;;;48.00;;
39454;SDS011;25155;41.890;23.446;2022-11-11T06:28:14;117.43;;;70.15;;
39454;SDS011;25155;41.890;23.446;2022-11-11T06:30:43;107.40;;;66.88;;
39454;SDS011;25155;41.890;23.446;2022-11-11T06:33:10;98.93;;;64.53;;
39454;SDS011;25155;41.890;23.446;2022-11-11T06:35:38;114.18;;;72.20;;
39454;SDS011;25155;41.890;23.446;2022-11-11T06:38:10;93.97;;;60.25;;
39454;SDS011;25155;41.890;23.446;2022-11-11T06:40:40;90.18;;;58.47;;
39454;SDS011;25155;41.890;23.446;2022-11-11T06:43:09;87.07;;;58.65;;
39454;SDS011;25155;41.890;23.446;2022-11-11T06:45:38;96.88;;;65.82;;
39454;SDS011;25155;41.890;23.446;2022-11-11T06:48:06;93.80;;;63.08;;
39454;SDS011;25155;41.890;23.446;2022-11-11T06:50:35;75.50;;;52.58;;
39454;SDS011;25155;41.890;23.446;2022-11-11T06:53:03;60.28;;;43.55;;
39454;SDS011;25155;41.890;23.446;2022-11-11T06:55:31;59.13;;;41.95;;
39454;SDS011;25155;41.890;23.446;2022-11-11T06:58:04;57.10;;;39.90;;
39454;SDS011;25155;41.890;23.446;2022-11-11T07:00:32;52.53;;;39.10;;
39454;SDS011;25155;41.890;23.446;2022-11-11T07:03:01;60.10;;;42.60;;
39454;SDS011;25155;41.890;23.446;2022-11-11T07:05:29;53.55;;;38.90;;
39454;SDS011;25155;41.890;23.446;2022-11-11T07:07:58;45.65;;;32.72;;
39454;SDS011;25155;41.890;23.446;2022-11-11T07:10:28;35.63;;;28.42;;
39454;SDS011;25155;41.890;23.446;2022-11-11T07:12:56;37.33;;;27.52;;
39454;SDS011;25155;41.890;23.446;2022-11-11T07:15:23;34.45;;;25.15;;
39454;SDS011;25155;41.890;23.446;2022-11-11T07:17:52;22.55;;;17.80;;
39454;SDS011;25155;41.890;23.446;2022-11-11T07:20:20;20.02;;;14.52;;
39454;SDS011;25155;41.890;23.446;2022-11-11T07:22:48;26.75;;;22.00;;
39454;SDS011;25155;41.890;23.446;2022-11-11T07:25:15;37.15;;;27.92;;
39454;SDS011;25155;41.890;23.446;2022-11-11T07:27:43;38.33;;;28.08;;
39454;SDS011;25155;41.890;23.446;2022-11-11T07:30:11;32.75;;;24.30;;
39454;SDS011;25155;41.890;23.446;2022-11-11T07:32:42;23.33;;;17.23;;
39454;SDS011;25155;41.890;23.446;2022-11-11T07:35:11;20.25;;;16.33;;
39454;SDS011;25155;41.890;23.446;2022-11-11T07:37:41;28.92;;;22.23;;
39454;SDS011;25155;41.890;23.446;2022-11-11T07:40:09;28.15;;;21.15;;
39454;SDS011;25155;41.890;23.446;2022-11-11T07:42:37;24.65;;;19.35;;
39454;SDS011;25155;41.890;23.446;2022-11-11T07:45:06;25.40;;;19.50;;
39454;SDS011;25155;41.890;23.446;2022-11-11T07:47:35;22.85;;;17.50;;
39454;SDS011;25155;41.890;23.446;2022-11-11T07:50:02;41.80;;;31.55;;
39454;SDS011;25155;41.890;23.446;2022-11-11T07:52:31;70.03;;;54.55;;
39454;SDS011;25155;41.890;23.446;2022-11-11T07:55:00;79.10;;;65.38;;
39454;SDS011;25155;41.890;23.446;2022-11-11T07:57:27;87.03;;;70.55;;
39454;SDS011;25155;41.890;23.446;2022-11-11T07:59:55;129.95;;;111.07;;
39454;SDS011;25155;41.890;23.446;2022-11-11T08:02:22;153.02;;;116.38;;
39454;SDS011;25155;41.890;23.446;2022-11-11T08:05:12;149.27;;;119.93;;
39454;SDS011;25155;41.890;23.446;2022-11-11T08:11:01;100.45;;;81.40;;
39454;SDS011;25155;41.890;23.446;2022-11-11T08:13:29;93.43;;;73.93;;
39454;SDS011;25155;41.890;23.446;2022-11-11T08:16:06;85.28;;;67.40;;
39454;SDS011;25155;41.890;23.446;2022-11-11T08:18:33;74.70;;;57.17;;
39454;SDS011;25155;41.890;23.446;2022-11-11T08:21:02;69.13;;;52.10;;
39454;SDS011;25155;41.890;23.446;2022-11-11T08:26:18;65.22;;;50.38;;
39454;SDS011;25155;41.890;23.446;2022-11-11T08:28:47;55.72;;;42.78;;
39454;SDS011;25155;41.890;23.446;2022-11-11T08:31:17;59.45;;;47.97;;
39454;SDS011;25155;41.890;23.446;2022-11-11T08:36:56;65.73;;;48.17;;
39454;SDS011;25155;41.890;23.446;2022-11-11T08:39:23;54.25;;;42.42;;
39454;SDS011;25155;41.890;23.446;2022-11-11T08:41:53;50.72;;;39.38;;
39454;SDS011;25155;41.890;23.446;2022-11-11T08:44:21;37.03;;;30.73;;
39454;SDS011;25155;41.890;23.446;2022-11-11T08:46:48;55.53;;;43.17;;
39454;SDS011;25155;41.890;23.446;2022-11-11T08:49:16;62.80;;;47.05;;
39454;SDS011;25155;41.890;23.446;2022-11-11T08:51:44;45.88;;;37.75;;
39454;SDS011;25155;41.890;23.446;2022-11-11T08:54:12;56.17;;;44.88;;
39454;SDS011;25155;41.890;23.446;2022-11-11T08:56:39;46.70;;;37.92;;
39454;SDS011;25155;41.890;23.446;2022-11-11T08:59:09;43.40;;;35.30;;
39454;SDS011;25155;41.890;23.446;2022-11-11T09:01:39;37.58;;;31.60;;
39454;SDS011;25155;41.890;23.446;2022-11-11T09:04:09;31.10;;;25.65;;
39454;SDS011;25155;41.890;23.446;2022-11-11T09:06:37;30.42;;;24.52;;
39454;SDS011;25155;41.890;23.446;2022-11-11T09:09:07;49.27;;;39.20;;
39454;SDS011;25155;41.890;23.446;2022-11-11T09:11:35;42.83;;;35.55;;
39454;SDS011;25155;41.890;23.446;2022-11-11T09:14:02;48.53;;;38.80;;
39454;SDS011;25155;41.890;23.446;2022-11-11T09:16:31;52.55;;;42.45;;
39454;SDS011;25155;41.890;23.446;2022-11-11T09:18:58;60.40;;;46.10;;
39454;SDS011;25155;41.890;23.446;2022-11-11T09:21:25;63.85;;;47.78;;
39454;SDS011;25155;41.890;23.446;2022-11-11T09:23:52;55.50;;;46.13;;
39454;SDS011;25155;41.890;23.446;2022-11-11T09:26:20;62.10;;;48.40;;
39454;SDS011;25155;41.890;23.446;2022-11-11T09:28:47;60.97;;;47.17;;
39454;SDS011;25155;41.890;23.446;2022-11-11T09:31:14;56.75;;;47.17;;
39454;SDS011;25155;41.890;23.446;2022-11-11T09:33:43;67.18;;;51.60;;
39454;SDS011;25155;41.890;23.446;2022-11-11T09:36:10;61.78;;;49.83;;
39454;SDS011;25155;41.890;23.446;2022-11-11T09:38:38;55.50;;;42.58;;
39454;SDS011;25155;41.890;23.446;2022-11-11T09:41:11;46.47;;;37.25;;
39454;SDS011;25155;41.890;23.446;2022-11-11T09:43:52;37.20;;;28.67;;
39454;SDS011;25155;41.890;23.446;2022-11-11T09:46:32;29.63;;;23.70;;
39454;SDS011;25155;41.890;23.446;2022-11-11T09:49:08;34.40;;;28.42;;
39454;SDS011;25155;41.890;23.446;2022-11-11T09:51:50;36.25;;;29.48;;
39454;SDS011;25155;41.890;23.446;2022-11-11T09:54:33;37.58;;;31.40;;
39454;SDS011;25155;41.890;23.446;2022-11-11T09:57:05;39.45;;;31.20;;
39454;SDS011;25155;41.890;23.446;2022-11-11T10:00:04;35.10;;;29.83;;
39454;SDS011;25155;41.890;23.446;2022-11-11T10:02:42;44.65;;;34.45;;
39454;SDS011;25155;41.890;23.446;2022-11-11T10:05:18;58.45;;;42.53;;
39454;SDS011;25155;41.890;23.446;2022-11-11T10:07:48;51.08;;;40.30;;
39454;SDS011;25155;41.890;23.446;2022-11-11T10:10:21;45.60;;;36.00;;
39454;SDS011;25155;41.890;23.446;2022-11-11T10:12:54;63.97;;;49.20;;
39454;SDS011;25155;41.890;23.446;2022-11-11T10:15:23;56.20;;;41.10;;
39454;SDS011;25155;41.890;23.446;2022-11-11T10:20:47;69.10;;;59.10;;
39454;SDS011;25155;41.890;23.446;2022-11-11T10:23:21;60.95;;;51.88;;
39454;SDS011;25155;41.890;23.446;2022-11-11T10:25:53;58.17;;;47.22;;
39454;SDS011;25155;41.890;23.446;2022-11-11T10:28:22;60.38;;;51.42;;
39454;SDS011;25155;41.890;23.446;2022-11-11T10:30:53;67.57;;;57.95;;
39454;SDS011;25155;41.890;23.446;2022-11-11T10:33:23;78.78;;;70.22;;
39454;SDS011;25155;41.890;23.446;2022-11-11T10:35:55;78.10;;;68.22;;
39454;SDS011;25155;41.890;23.446;2022-11-11T10:38:30;80.45;;;71.53;;
39454;SDS011;25155;41.890;23.446;2022-11-11T10:41:04;67.65;;;60.20;;
39454;SDS011;25155;41.890;23.446;2022-11-11T10:43:37;56.08;;;47.65;;
39454;SDS011;25155;41.890;23.446;2022-11-11T10:46:06;43.70;;;38.58;;
39454;SDS011;25155;41.890;23.446;2022-11-11T10:48:41;48.00;;;40.22;;
39454;SDS011;25155;41.890;23.446;2022-11-11T10:51:18;40.10;;;34.03;;
39454;SDS011;25155;41.890;23.446;2022-11-11T10:53:48;35.63;;;30.13;;
39454;SDS011;25155;41.890;23.446;2022-11-11T10:56:24;34.42;;;29.73;;
39454;SDS011;25155;41.890;23.446;2022-11-11T10:58:56;40.05;;;33.78;;
39454;SDS011;25155;41.890;23.446;2022-11-11T11:01:29;39.45;;;33.67;;
39454;SDS011;25155;41.890;23.446;2022-11-11T11:04:02;36.40;;;31.20;;
39454;SDS011;25155;41.890;23.446;2022-11-11T11:06:36;34.10;;;28.10;;
39454;SDS011;25155;41.890;23.446;2022-11-11T11:09:10;28.17;;;23.95;;
39454;SDS011;25155;41.890;23.446;2022-11-11T11:11:44;19.70;;;15.77;;
39454;SDS011;25155;41.890;23.446;2022-11-11T11:14:16;14.45;;;12.00;;
39454;SDS011;25155;41.890;23.446;2022-11-11T11:16:48;15.15;;;11.52;;
39454;SDS011;25155;41.890;23.446;2022-11-11T11:19:20;14.27;;;12.05;;
39454;SDS011;25155;41.890;23.446;2022-11-11T11:21:51;14.48;;;11.57;;
39454;SDS011;25155;41.890;23.446;2022-11-11T11:26:50;14.48;;;10.02;;
39454;SDS011;25155;41.890;23.446;2022-11-11T11:29:25;12.95;;;10.30;;
39454;SDS011;25155;41.890;23.446;2022-11-11T11:31:54;13.82;;;11.45;;
39454;SDS011;25155;41.890;23.446;2022-11-11T11:34:40;14.68;;;11.23;;
39454;SDS011;25155;41.890;23.446;2022-11-11T11:37:10;13.83;;;11.70;;
39454;SDS011;25155;41.890;23.446;2022-11-11T11:39:38;16.05;;;12.60;;
39454;SDS011;25155;41.890;23.446;2022-11-11T11:42:27;16.13;;;12.55;;
39454;SDS011;25155;41.890;23.446;2022-11-11T11:44:56;18.55;;;13.23;;
39454;SDS011;25155;41.890;23.446;2022-11-11T11:47:41;19.73;;;14.50;;
39454;SDS011;25155;41.890;23.446;2022-11-11T11:50:21;18.35;;;14.48;;
39454;SDS011;25155;41.890;23.446;2022-11-11T11:53:02;20.38;;;15.30;;
39454;SDS011;25155;41.890;23.446;2022-11-11T11:55:42;19.55;;;14.85;;
39454;SDS011;25155;41.890;23.446;2022-11-11T12:01:03;17.98;;;14.15;;
39454;SDS011;25155;41.890;23.446;2022-11-11T12:06:39;16.17;;;12.90;;
39454;SDS011;25155;41.890;23.446;2022-11-11T12:09:20;16.80;;;13.38;;
39454;SDS011;25155;41.890;23.446;2022-11-11T12:11:58;18.80;;;14.30;;
39454;SDS011;25155;41.890;23.446;2022-11-11T12:14:40;17.27;;;12.23;;
39454;SDS011;25155;41.890;23.446;2022-11-11T12:17:23;16.95;;;13.38;;
39454;SDS011;25155;41.890;23.446;2022-11-11T12:20:03;17.15;;;12.18;;
39454;SDS011;25155;41.890;23.446;2022-11-11T12:22:44;17.08;;;13.38;;
39454;SDS011;25155;41.890;23.446;2022-11-11T12:25:28;15.57;;;13.07;;
39454;SDS011;25155;41.890;23.446;2022-11-11T12:28:06;17.85;;;13.23;;
39454;SDS011;25155;41.890;23.446;2022-11-11T12:30:43;17.15;;;13.52;;
39454;SDS011;25155;41.890;23.446;2022-11-11T12:33:30;17.65;;;12.60;;
39454;SDS011;25155;41.890;23.446;2022-11-11T12:36:10;15.75;;;12.07;;
39454;SDS011;25155;41.890;23.446;2022-11-11T12:38:48;15.52;;;12.45;;
39454;SDS011;25155;41.890;23.446;2022-11-11T12:41:26;17.85;;;12.18;;
39454;SDS011;25155;41.890;23.446;2022-11-11T12:44:10;16.63;;;11.32;;
39454;SDS011;25155;41.890;23.446;2022-11-11T12:46:43;16.10;;;11.95;;
39454;SDS011;25155;41.890;23.446;2022-11-11T12:49:29;14.40;;;12.00;;
39454;SDS011;25155;41.890;23.446;2022-11-11T12:52:18;15.60;;;10.95;;
39454;SDS011;25155;41.890;23.446;2022-11-11T12:55:00;13.95;;;11.00;;
39454;SDS011;25155;41.890;23.446;2022-11-11T12:57:45;13.63;;;10.27;;
39454;SDS011;25155;41.890;23.446;2022-11-11T13:00:23;13.85;;;10.55;;
39454;SDS011;25155;41.890;23.446;2022-11-11T13:02:55;13.95;;;10.43;;
39454;SDS011;25155;41.890;23.446;2022-11-11T13:05:35;13.43;;;10.60;;
39454;SDS011;25155;41.890;23.446;2022-11-11T13:08:12;14.40;;;10.35;;
39454;SDS011;25155;41.890;23.446;2022-11-11T13:10:57;13.63;;;10.40;;
39454;SDS011;25155;41.890;23.446;2022-11-11T13:13:37;12.48;;;9.90;;
39454;SDS011;25155;41.890;23.446;2022-11-11T13:16:15;11.63;;;9.70;;
39454;SDS011;25155;41.890;23.446;2022-11-11T13:18:48;12.52;;;9.68;;
39454;SDS011;25155;41.890;23.446;2022-11-11T13:21:20;10.98;;;9.02;;
39454;SDS011;25155;41.890;23.446;2022-11-11T13:23:52;11.02;;;8.75;;
39454;SDS011;25155;41.890;23.446;2022-11-11T13:26:23;12.90;;;9.98;;
39454;SDS011;25155;41.890;23.446;2022-11-11T13:28:58;10.50;;;8.80;;
39454;SDS011;25155;41.890;23.446;2022-11-11T13:31:40;10.32;;;8.73;;
39454;SDS011;25155;41.890;23.446;2022-11-11T13:34:10;11.10;;;8.32;;
39454;SDS011;25155;41.890;23.446;2022-11-11T13:36:40;13.35;;;9.27;;
39454;SDS011;25155;41.890;23.446;2022-11-11T13:39:18;8.43;;;6.88;;
39454;SDS011;25155;41.890;23.446;2022-11-11T13:41:51;10.65;;;8.65;;
39454;SDS011;25155;41.890;23.446;2022-11-11T13:44:23;10.50;;;8.65;;
39454;SDS011;25155;41.890;23.446;2022-11-11T13:46:57;12.80;;;9.38;;
39454;SDS011;25155;41.890;23.446;2022-11-11T13:49:29;12.10;;;8.48;;
39454;SDS011;25155;41.890;23.446;2022-11-11T13:52:01;10.60;;;8.73;;
39454;SDS011;25155;41.890;23.446;2022-11-11T13:54:31;10.82;;;9.02;;
39454;SDS011;25155;41.890;23.446;2022-11-11T13:57:01;11.00;;;8.85;;
39454;SDS011;25155;41.890;23.446;2022-11-11T13:59:33;11.63;;;9.55;;
39454;SDS011;25155;41.890;23.446;2022-11-11T14:07:51;11.38;;;8.63;;
39454;SDS011;25155;41.890;23.446;2022-11-11T14:16:11;11.20;;;8.52;;
39454;SDS011;25155;41.890;23.446;2022-11-11T14:18:59;12.60;;;9.13;;
39454;SDS011;25155;41.890;23.446;2022-11-11T14:21:54;11.40;;;8.57;;
39454;SDS011;25155;41.890;23.446;2022-11-11T14:24:24;10.52;;;8.45;;
39454;SDS011;25155;41.890;23.446;2022-11-11T14:26:57;10.88;;;8.63;;
39454;SDS011;25155;41.890;23.446;2022-11-11T14:29:27;10.30;;;8.02;;
39454;SDS011;25155;41.890;23.446;2022-11-11T14:35:10;11.73;;;9.07;;
39454;SDS011;25155;41.890;23.446;2022-11-11T14:37:56;9.23;;;6.60;;
39454;SDS011;25155;41.890;23.446;2022-11-11T14:40:31;10.32;;;7.80;;
39454;SDS011;25155;41.890;23.446;2022-11-11T14:42:59;9.68;;;7.22;;
39454;SDS011;25155;41.890;23.446;2022-11-11T14:46:08;11.57;;;8.63;;
39454;SDS011;25155;41.890;23.446;2022-11-11T14:48:52;11.38;;;9.15;;
39454;SDS011;25155;41.890;23.446;2022-11-11T14:51:41;11.75;;;9.65;;
39454;SDS011;25155;41.890;23.446;2022-11-11T14:57:18;12.63;;;10.05;;
39454;SDS011;25155;41.890;23.446;2022-11-11T14:59:48;13.23;;;9.88;;
39454;SDS011;25155;41.890;23.446;2022-11-11T15:02:26;12.15;;;10.20;;
39454;SDS011;25155;41.890;23.446;2022-11-11T15:04:57;19.52;;;15.13;;
39454;SDS011;25155;41.890;23.446;2022-11-11T15:07:30;15.45;;;11.35;;
39454;SDS011;25155;41.890;23.446;2022-11-11T15:10:11;13.27;;;10.07;;
39454;SDS011;25155;41.890;23.446;2022-11-11T15:15:29;15.27;;;12.55;;
39454;SDS011;25155;41.890;23.446;2022-11-11T15:18:07;14.57;;;12.18;;
39454;SDS011;25155;41.890;23.446;2022-11-11T15:20:52;16.55;;;13.07;;
39454;SDS011;25155;41.890;23.446;2022-11-11T15:23:32;16.23;;;11.65;;
39454;SDS011;25155;41.890;23.446;2022-11-11T15:26:08;15.80;;;13.05;;
39454;SDS011;25155;41.890;23.446;2022-11-11T15:28:52;16.40;;;12.80;;
39454;SDS011;25155;41.890;23.446;2022-11-11T15:31:31;13.52;;;10.40;;
39454;SDS011;25155;41.890;23.446;2022-11-11T15:34:12;12.75;;;9.55;;